Time;durP1;ratioP1;P1;durP2;ratioP2;P2;SDS_P1;SDS_P2;PMS_P1;PMS_P2;Temp;Humidity;BMP_temperature;BMP_pressure;BME280_temperature;BME280_humidity;BME280_pressure;Samples;Min_cycle;Max_cycle;Signal;HPM_P1;HPM_P2
2021/12/04 00:00:15;;;;;;;;;0.50;0.00;;;;;;;;5064387;28;45614;-84
2021/12/04 00:02:40;;;;;;;;;0.00;0.00;;;;;;;;5047660;28;45334;-86
2021/12/04 00:05:07;;;;;;;;;0.00;0.00;;;;;;;;5044911;28;47123;-85
2021/12/04 00:07:34;;;;;;;;;0.25;0.00;;;;;;;;5060447;28;45407;-85
2021/12/04 00:10:01;;;;;;;;;0.00;0.00;;;;;;;;5051995;28;45419;-85
2021/12/04 00:12:27;;;;;;;;;0.00;0.00;;;;;;;;5043251;28;45466;-84
2021/12/04 00:14:52;;;;;;;;;0.75;0.00;;;;;;;;5048672;28;46955;-85
2021/12/04 00:17:18;;;;;;;;;0.00;0.00;;;;;;;;5037307;28;45587;-84
2021/12/04 00:19:43;;;;;;;;;0.00;0.00;;;;;;;;5037170;28;45464;-87
2021/12/04 00:22:09;;;;;;;;;0.00;0.00;;;;;;;;5058359;28;45352;-86
2021/12/04 00:24:34;;;;;;;;;0.00;0.00;;;;;;;;5064422;28;45425;-87
2021/12/04 00:26:59;;;;;;;;;1.00;0.00;;;;;;;;5032585;28;45596;-85
2021/12/04 00:29:26;;;;;;;;;0.00;0.00;;;;;;;;5033253;28;45391;-86
2021/12/04 00:34:40;;;;;;;;;0.00;0.00;;;;;;;;5047285;28;45787;-86
2021/12/04 00:37:26;;;;;;;;;0.00;0.00;;;;;;;;5040595;28;45571;-85
2021/12/04 00:50:47;;;;;;;;;0.00;0.00;;;;;;;;5058087;28;45531;-85
2021/12/04 00:53:12;;;;;;;;;0.00;0.00;;;;;;;;5047834;28;45478;-85
2021/12/04 00:55:38;;;;;;;;;0.00;0.00;;;;;;;;5031866;28;48307;-86
2021/12/04 00:58:04;;;;;;;;;0.00;0.00;;;;;;;;5032005;28;45737;-85
2021/12/04 01:00:29;;;;;;;;;0.00;0.00;;;;;;;;5048437;28;45396;-86
2021/12/04 01:02:54;;;;;;;;;0.00;0.00;;;;;;;;5032850;28;45490;-86
2021/12/04 01:05:19;;;;;;;;;0.00;0.00;;;;;;;;5030915;28;48002;-87
2021/12/04 01:07:45;;;;;;;;;0.00;0.00;;;;;;;;5032671;28;45550;-87
2021/12/04 01:10:10;;;;;;;;;0.00;0.00;;;;;;;;5031934;28;45348;-87
2021/12/04 01:12:35;;;;;;;;;0.00;0.00;;;;;;;;5032302;28;45416;-87
2021/12/04 01:15:00;;;;;;;;;0.00;0.00;;;;;;;;5031255;28;46948;-87
2021/12/04 01:17:26;;;;;;;;;0.00;0.00;;;;;;;;5032476;28;45488;-84
2021/12/04 01:19:51;;;;;;;;;0.00;0.00;;;;;;;;5031294;28;45888;-86
2021/12/04 01:22:20;;;;;;;;;0.00;0.00;;;;;;;;5049502;28;45408;-87
2021/12/04 01:24:45;;;;;;;;;0.00;0.00;;;;;;;;5031891;28;48053;-86
2021/12/04 01:27:11;;;;;;;;;0.00;0.00;;;;;;;;5030903;28;45613;-87
2021/12/04 01:29:37;;;;;;;;;0.00;0.00;;;;;;;;5048344;28;45391;-87
2021/12/04 01:32:02;;;;;;;;;0.00;0.00;;;;;;;;5032578;28;45497;-87
2021/12/04 01:34:27;;;;;;;;;0.00;0.00;;;;;;;;5031833;28;48220;-86
2021/12/04 01:36:52;;;;;;;;;0.00;0.00;;;;;;;;5030128;28;45485;-87
2021/12/04 01:39:19;;;;;;;;;0.00;0.00;;;;;;;;5050698;28;45496;-86
2021/12/04 01:41:44;;;;;;;;;0.00;0.00;;;;;;;;5049284;28;45701;-88
2021/12/04 01:44:10;;;;;;;;;0.00;0.00;;;;;;;;5037439;28;47527;-86
2021/12/04 01:46:35;;;;;;;;;0.00;0.00;;;;;;;;5034463;28;45380;-86
2021/12/04 01:49:01;;;;;;;;;0.00;0.00;;;;;;;;5042315;28;45643;-86
2021/12/04 01:51:26;;;;;;;;;0.00;0.00;;;;;;;;5033833;28;45626;-86
2021/12/04 01:53:51;;;;;;;;;0.00;0.00;;;;;;;;5056870;28;45516;-85
2021/12/04 01:56:17;;;;;;;;;0.00;0.00;;;;;;;;5052955;28;45990;-88
2021/12/04 01:58:42;;;;;;;;;0.00;0.00;;;;;;;;5031046;28;45618;-87
2021/12/04 02:01:09;;;;;;;;;0.00;0.00;;;;;;;;5033596;28;45630;-87
2021/12/04 02:03:35;;;;;;;;;0.00;0.00;;;;;;;;5036230;28;47495;-86
2021/12/04 02:06:00;;;;;;;;;0.00;0.00;;;;;;;;5031424;28;45517;-86
2021/12/04 02:08:25;;;;;;;;;0.00;0.00;;;;;;;;5033161;28;45498;-85
2021/12/04 02:10:52;;;;;;;;;0.00;0.00;;;;;;;;5031532;28;45367;-86
2021/12/04 02:13:17;;;;;;;;;1.00;0.00;;;;;;;;5034550;28;47186;-86
2021/12/04 02:15:44;;;;;;;;;0.00;0.00;;;;;;;;5033398;28;45486;-84
2021/12/04 02:18:09;;;;;;;;;0.00;0.00;;;;;;;;5035601;28;45785;-85
2021/12/04 02:20:35;;;;;;;;;0.00;0.00;;;;;;;;5040607;28;45364;-86
2021/12/04 02:23:01;;;;;;;;;0.00;0.00;;;;;;;;5056191;28;45396;-86
2021/12/04 02:25:26;;;;;;;;;0.00;0.00;;;;;;;;5042378;28;45302;-85
2021/12/04 02:27:52;;;;;;;;;0.67;0.00;;;;;;;;5068050;28;44961;-84
2021/12/04 02:30:21;;;;;;;;;0.00;0.00;;;;;;;;5063675;28;45343;-86
2021/12/04 02:32:47;;;;;;;;;0.00;0.00;;;;;;;;5062613;28;45463;-85
2021/12/04 02:35:13;;;;;;;;;0.00;0.00;;;;;;;;5046189;28;45110;-87
2021/12/04 02:37:39;;;;;;;;;0.00;0.00;;;;;;;;5047889;28;45511;-86
2021/12/04 02:40:06;;;;;;;;;0.00;0.00;;;;;;;;5034871;28;45634;-88
2021/12/04 02:42:31;;;;;;;;;0.00;0.00;;;;;;;;5058549;28;45479;-86
2021/12/04 02:44:58;;;;;;;;;0.00;0.00;;;;;;;;5054753;28;45317;-86
2021/12/04 02:47:23;;;;;;;;;0.00;0.00;;;;;;;;5041410;28;45559;-88
2021/12/04 02:49:49;;;;;;;;;0.00;0.00;;;;;;;;5048086;28;45419;-86
2021/12/04 02:52:14;;;;;;;;;0.00;0.00;;;;;;;;5035895;28;48419;-86
2021/12/04 02:54:40;;;;;;;;;0.00;0.00;;;;;;;;5048958;28;45979;-86
2021/12/04 02:57:06;;;;;;;;;0.00;0.00;;;;;;;;5044430;28;45499;-86
2021/12/04 02:59:33;;;;;;;;;0.00;0.00;;;;;;;;5045911;28;45273;-87
2021/12/04 03:01:59;;;;;;;;;0.00;0.00;;;;;;;;5046996;28;47864;-86
2021/12/04 03:04:25;;;;;;;;;0.00;0.00;;;;;;;;5044248;28;45986;-87
2021/12/04 03:06:51;;;;;;;;;0.25;0.00;;;;;;;;5034583;28;45742;-86
2021/12/04 03:09:17;;;;;;;;;0.00;0.00;;;;;;;;5035501;28;45286;-87
2021/12/04 03:11:42;;;;;;;;;0.00;0.00;;;;;;;;5043187;28;47031;-84
2021/12/04 03:14:08;;;;;;;;;0.00;0.00;;;;;;;;5058412;28;45380;-85
2021/12/04 03:16:34;;;;;;;;;0.00;0.00;;;;;;;;5035110;28;45406;-85
2021/12/04 03:19:00;;;;;;;;;0.00;0.00;;;;;;;;5032891;28;45759;-85
2021/12/04 03:21:26;;;;;;;;;0.00;0.00;;;;;;;;5033942;28;47152;-85
2021/12/04 03:23:53;;;;;;;;;0.50;0.00;;;;;;;;5054582;28;45348;-85
2021/12/04 03:26:20;;;;;;;;;0.00;0.00;;;;;;;;5032782;28;45616;-85
2021/12/04 03:28:46;;;;;;;;;0.00;0.00;;;;;;;;5032193;28;45428;-85
2021/12/04 03:31:21;;;;;;;;;0.00;0.00;;;;;;;;5051185;28;46258;-85
2021/12/04 03:41:58;;;;;;;;;0.00;0.00;;;;;;;;5069995;28;45625;-86
2021/12/04 03:44:23;;;;;;;;;0.00;0.00;;;;;;;;5066743;28;45409;-86
2021/12/04 03:46:48;;;;;;;;;0.00;0.00;;;;;;;;5048127;28;45384;-85
2021/12/04 03:49:14;;;;;;;;;0.00;0.00;;;;;;;;5045477;28;45280;-86
2021/12/04 03:51:39;;;;;;;;;0.00;0.00;;;;;;;;5045949;28;47262;-87
2021/12/04 03:54:04;;;;;;;;;0.00;0.00;;;;;;;;5045427;28;45423;-85
2021/12/04 03:56:31;;;;;;;;;0.00;0.00;;;;;;;;5064786;28;45399;-85
2021/12/04 03:58:57;;;;;;;;;0.00;0.00;;;;;;;;5035036;28;45552;-86
2021/12/04 04:01:22;;;;;;;;;0.00;0.00;;;;;;;;5053728;28;46895;-88
2021/12/04 04:03:48;;;;;;;;;1.00;0.00;;;;;;;;5055087;28;45375;-87
2021/12/04 04:06:13;;;;;;;;;0.00;0.00;;;;;;;;5031536;28;45547;-86
2021/12/04 04:08:39;;;;;;;;;0.00;0.00;;;;;;;;5032147;28;45666;-85
2021/12/04 04:11:04;;;;;;;;;0.00;0.00;;;;;;;;5031980;28;46962;-87
2021/12/04 04:13:29;;;;;;;;;0.00;0.00;;;;;;;;5049580;28;45285;-86
2021/12/04 04:15:54;;;;;;;;;0.00;0.00;;;;;;;;5050319;28;45307;-85
2021/12/04 04:18:20;;;;;;;;;0.00;0.00;;;;;;;;5031583;28;45525;-85
2021/12/04 04:20:45;;;;;;;;;0.00;0.00;;;;;;;;5048579;28;46696;-85
2021/12/04 04:23:11;;;;;;;;;0.00;0.00;;;;;;;;5034241;28;45420;-86
2021/12/04 04:25:36;;;;;;;;;0.00;0.00;;;;;;;;5031431;28;45985;-86
2021/12/04 04:28:01;;;;;;;;;0.00;0.00;;;;;;;;5051133;28;45689;-85
2021/12/04 04:30:26;;;;;;;;;0.00;0.00;;;;;;;;5049663;28;45529;-86
2021/12/04 04:32:53;;;;;;;;;0.00;0.00;;;;;;;;5052116;28;45479;-87
2021/12/04 04:35:24;;;;;;;;;0.00;0.00;;;;;;;;5050214;28;45430;-87
2021/12/04 04:37:59;;;;;;;;;0.00;0.00;;;;;;;;5052260;28;45468;-85
2021/12/04 05:10:19;;;;;;;;;0.00;0.00;;;;;;;;5061058;28;45465;-86
2021/12/04 05:13:17;;;;;;;;;0.00;0.00;;;;;;;;5049486;28;45807;-86
2021/12/04 05:18:31;;;;;;;;;0.00;0.00;;;;;;;;5052029;28;45357;-86
2021/12/04 05:21:05;;;;;;;;;0.00;0.00;;;;;;;;5034395;28;45832;-87
2021/12/04 05:23:31;;;;;;;;;0.00;0.00;;;;;;;;5035801;28;47817;-86
2021/12/04 05:25:57;;;;;;;;;0.00;0.00;;;;;;;;5057873;28;45315;-86
2021/12/04 05:28:22;;;;;;;;;0.00;0.00;;;;;;;;5058128;28;45632;-87
2021/12/04 05:30:50;;;;;;;;;0.00;0.00;;;;;;;;5047731;28;45140;-87
2021/12/04 05:33:16;;;;;;;;;0.00;0.00;;;;;;;;5032935;28;47529;-86
2021/12/04 05:35:41;;;;;;;;;1.00;0.00;;;;;;;;5032159;28;45396;-87
2021/12/04 05:38:06;;;;;;;;;0.00;0.00;;;;;;;;5049993;28;45391;-87
2021/12/04 05:40:31;;;;;;;;;0.00;0.00;;;;;;;;5030706;28;45408;-86
2021/12/04 05:43:03;;;;;;;;;0.00;0.00;;;;;;;;5032911;28;47246;-87
2021/12/04 05:45:37;;;;;;;;;0.00;0.00;;;;;;;;5049267;28;45872;-85
2021/12/04 05:48:08;;;;;;;;;0.00;0.00;;;;;;;;5053284;28;45372;-87
2021/12/04 05:58:18;;;;;;;;;0.00;0.00;;;;;;;;5052365;28;45679;-87
2021/12/04 06:00:43;;;;;;;;;0.00;0.00;;;;;;;;5034061;28;45582;-86
2021/12/04 06:03:09;;;;;;;;;0.00;0.00;;;;;;;;5032721;28;47899;-85
2021/12/04 06:05:36;;;;;;;;;0.00;0.00;;;;;;;;5034525;28;45874;-87
2021/12/04 06:08:01;;;;;;;;;0.00;0.00;;;;;;;;5037560;28;45388;-86
2021/12/04 06:10:26;;;;;;;;;0.00;0.00;;;;;;;;5056141;28;45546;-87
2021/12/04 06:12:51;;;;;;;;;0.00;0.00;;;;;;;;5033339;28;47378;-86
2021/12/04 06:15:17;;;;;;;;;0.00;0.00;;;;;;;;5054505;28;45645;-86
2021/12/04 06:17:42;;;;;;;;;0.00;0.00;;;;;;;;5054243;28;45372;-86
2021/12/04 06:22:51;;;;;;;;;0.00;0.00;;;;;;;;5052448;28;45482;-86
2021/12/04 06:25:19;;;;;;;;;0.00;0.00;;;;;;;;5035531;28;45752;-85
2021/12/04 06:27:45;;;;;;;;;0.00;0.00;;;;;;;;5032597;28;45290;-86
2021/12/04 06:30:11;;;;;;;;;1.00;0.25;;;;;;;;5033865;28;45708;-88
2021/12/04 06:32:37;;;;;;;;;1.00;0.00;;;;;;;;5034259;28;46995;-86
2021/12/04 06:35:03;;;;;;;;;0.00;0.00;;;;;;;;5051732;28;45494;-87
2021/12/04 06:37:29;;;;;;;;;0.00;0.00;;;;;;;;5034900;28;45366;-87
2021/12/04 06:39:54;;;;;;;;;0.00;0.00;;;;;;;;5035273;28;45641;-86
2021/12/04 06:42:23;;;;;;;;;0.00;0.00;;;;;;;;5051707;28;46466;-86
2021/12/04 06:44:51;;;;;;;;;0.00;0.00;;;;;;;;5051582;28;45460;-85
2021/12/04 06:47:16;;;;;;;;;0.00;0.00;;;;;;;;5033520;28;45545;-86
2021/12/04 06:49:43;;;;;;;;;0.00;0.00;;;;;;;;5033139;28;45953;-88
2021/12/04 06:52:14;;;;;;;;;1.00;0.00;;;;;;;;5035092;28;48288;-85
2021/12/04 06:54:43;;;;;;;;;0.00;0.00;;;;;;;;5036874;28;45412;-84
2021/12/04 06:57:10;;;;;;;;;0.25;0.00;;;;;;;;5047097;28;45333;-86
2021/12/04 06:59:38;;;;;;;;;0.00;0.00;;;;;;;;5049217;28;45025;-88
2021/12/04 07:02:04;;;;;;;;;0.50;0.00;;;;;;;;5046292;28;47542;-86
2021/12/04 07:04:34;;;;;;;;;0.00;0.00;;;;;;;;5047878;28;45523;-85
2021/12/04 07:07:00;;;;;;;;;0.00;0.00;;;;;;;;5064256;28;45654;-88
2021/12/04 07:09:25;;;;;;;;;0.00;0.00;;;;;;;;5059063;28;45650;-87
2021/12/04 07:11:50;;;;;;;;;0.00;0.00;;;;;;;;5047208;28;47373;-87
2021/12/04 07:14:15;;;;;;;;;1.00;1.00;;;;;;;;5043439;28;45963;-87
2021/12/04 07:16:41;;;;;;;;;1.00;1.00;;;;;;;;5052915;28;45395;-87
2021/12/04 07:19:06;;;;;;;;;2.00;1.00;;;;;;;;5032981;28;45625;-87
2021/12/04 07:21:31;;;;;;;;;1.00;1.00;;;;;;;;5032008;28;48310;-85
2021/12/04 07:23:56;;;;;;;;;1.00;0.00;;;;;;;;5054095;28;45513;-87
2021/12/04 07:26:22;;;;;;;;;1.00;1.00;;;;;;;;5033204;28;45440;-87
2021/12/04 07:28:47;;;;;;;;;0.00;0.00;;;;;;;;5033433;28;45749;-87
2021/12/04 07:31:12;;;;;;;;;1.00;1.00;;;;;;;;5053824;28;45415;-87
2021/12/04 07:33:37;;;;;;;;;1.00;1.00;;;;;;;;5033785;28;46162;-87
2021/12/04 07:36:03;;;;;;;;;1.00;1.00;;;;;;;;5032219;28;45250;-86
2021/12/04 07:38:28;;;;;;;;;0.00;0.00;;;;;;;;5040641;28;45801;-86
2021/12/04 07:40:54;;;;;;;;;0.00;0.00;;;;;;;;5050844;28;46347;-85
2021/12/04 07:43:19;;;;;;;;;0.00;0.00;;;;;;;;5043339;28;45561;-86
2021/12/04 07:45:44;;;;;;;;;0.00;0.00;;;;;;;;5049848;28;45395;-87
2021/12/04 07:48:09;;;;;;;;;0.50;0.50;;;;;;;;5041061;28;45538;-87
2021/12/04 07:50:35;;;;;;;;;0.00;0.00;;;;;;;;5063851;28;45978;-88
2021/12/04 07:53:00;;;;;;;;;0.00;0.00;;;;;;;;5049116;28;45373;-86
2021/12/04 07:55:25;;;;;;;;;0.25;0.00;;;;;;;;5047945;28;45191;-85
2021/12/04 07:57:51;;;;;;;;;0.00;0.00;;;;;;;;5047726;28;45381;-87
2021/12/04 08:00:17;;;;;;;;;0.00;0.00;;;;;;;;5039431;28;47056;-86
2021/12/04 08:02:42;;;;;;;;;0.00;0.00;;;;;;;;5043790;28;45746;-85
2021/12/04 08:05:08;;;;;;;;;0.00;0.00;;;;;;;;5049554;28;45170;-86
2021/12/04 08:07:34;;;;;;;;;0.00;0.00;;;;;;;;5050984;28;45205;-86
2021/12/04 08:09:59;;;;;;;;;0.00;0.00;;;;;;;;5047574;28;47165;-85
2021/12/04 08:12:25;;;;;;;;;0.00;0.00;;;;;;;;5049344;28;45480;-85
2021/12/04 08:14:53;;;;;;;;;0.00;0.00;;;;;;;;5069603;28;45097;-85
2021/12/04 08:17:18;;;;;;;;;0.00;0.00;;;;;;;;5047463;28;45441;-85
2021/12/04 08:19:43;;;;;;;;;0.00;0.00;;;;;;;;5068877;28;45586;-86
2021/12/04 08:22:08;;;;;;;;;0.00;0.00;;;;;;;;5050520;28;45057;-86
2021/12/04 08:24:33;;;;;;;;;0.00;0.00;;;;;;;;5063501;28;45158;-85
2021/12/04 08:26:59;;;;;;;;;0.67;0.00;;;;;;;;5046155;28;45811;-87
2021/12/04 08:29:25;;;;;;;;;1.00;1.00;;;;;;;;5060920;28;45337;-87
2021/12/04 08:31:50;;;;;;;;;0.00;0.00;;;;;;;;5033118;28;45516;-85
2021/12/04 08:34:15;;;;;;;;;0.00;0.00;;;;;;;;5052386;28;45501;-87
2021/12/04 08:36:41;;;;;;;;;0.00;0.00;;;;;;;;5033586;28;45603;-84
2021/12/04 08:39:06;;;;;;;;;0.00;0.00;;;;;;;;5051788;28;45842;-87
2021/12/04 08:41:32;;;;;;;;;0.00;0.00;;;;;;;;5052111;28;45573;-85
2021/12/04 08:43:57;;;;;;;;;0.00;0.00;;;;;;;;5034091;28;45626;-86
2021/12/04 08:46:23;;;;;;;;;0.00;0.00;;;;;;;;5042183;28;45453;-87
2021/12/04 08:48:49;;;;;;;;;0.00;0.00;;;;;;;;5051783;28;45947;-86
2021/12/04 08:51:17;;;;;;;;;0.00;0.00;;;;;;;;5039541;28;45838;-87
2021/12/04 08:53:43;;;;;;;;;0.00;0.00;;;;;;;;5031018;28;45314;-85
2021/12/04 08:56:08;;;;;;;;;0.00;0.00;;;;;;;;5038891;28;45454;-87
2021/12/04 08:58:36;;;;;;;;;0.00;0.00;;;;;;;;5044903;28;45701;-86
2021/12/04 09:01:04;;;;;;;;;0.50;0.50;;;;;;;;5048405;28;45995;-86
2021/12/04 09:03:31;;;;;;;;;0.00;0.00;;;;;;;;5031654;28;45394;-87
2021/12/04 09:05:57;;;;;;;;;0.00;0.00;;;;;;;;5032203;28;45635;-87
2021/12/04 09:08:24;;;;;;;;;1.00;1.00;;;;;;;;5031110;28;47009;-85
2021/12/04 09:10:49;;;;;;;;;0.25;0.00;;;;;;;;5040238;28;45308;-85
2021/12/04 09:13:15;;;;;;;;;0.00;0.00;;;;;;;;5041358;28;45360;-86
2021/12/04 09:15:41;;;;;;;;;0.00;0.00;;;;;;;;5034732;28;45529;-86
2021/12/04 09:18:06;;;;;;;;;0.00;0.00;;;;;;;;5054692;28;45609;-86
2021/12/04 09:20:32;;;;;;;;;0.00;0.00;;;;;;;;5068099;28;45203;-84
2021/12/04 09:22:59;;;;;;;;;0.00;0.00;;;;;;;;5044650;28;45598;-86
2021/12/04 09:25:26;;;;;;;;;0.00;0.00;;;;;;;;5069411;28;45227;-87
2021/12/04 10:11:46;;;;;;;;;1.00;1.00;;;;;;;;5057216;28;45813;-84
2021/12/04 10:22:17;;;;;;;;;0.25;0.00;;;;;;;;5060873;28;45470;-86
2021/12/04 10:25:04;;;;;;;;;0.00;0.00;;;;;;;;5044868;28;46043;-87
2021/12/04 10:33:09;;;;;;;;;0.00;0.00;;;;;;;;5033241;28;46034;-87
2021/12/04 10:35:35;;;;;;;;;0.00;0.00;;;;;;;;5030803;28;45905;-86
2021/12/04 10:38:03;;;;;;;;;0.00;0.00;;;;;;;;5045564;28;45571;-86
2021/12/04 10:40:46;;;;;;;;;0.75;0.75;;;;;;;;5034597;28;46024;-86
2021/12/04 10:43:21;;;;;;;;;1.00;1.00;;;;;;;;5055495;28;46463;-86
2021/12/04 10:45:50;;;;;;;;;1.00;1.00;;;;;;;;5036782;28;45627;-86
2021/12/04 10:48:22;;;;;;;;;1.00;1.00;;;;;;;;5038894;28;45340;-86
2021/12/04 10:50:59;;;;;;;;;1.50;1.50;;;;;;;;5068683;28;44913;-87
2021/12/04 10:53:26;;;;;;;;;1.00;1.00;;;;;;;;5068044;28;46251;-84
2021/12/04 11:45:04;;;;;;;;;1.50;1.50;;;;;;;;5056363;28;45227;-86
2021/12/04 11:47:37;;;;;;;;;1.50;1.50;;;;;;;;5066502;28;45802;-87
2021/12/04 11:50:12;;;;;;;;;1.00;1.00;;;;;;;;5046766;28;45552;-87
2021/12/04 11:52:43;;;;;;;;;1.00;1.00;;;;;;;;5066032;28;45223;-84
2021/12/04 11:55:09;;;;;;;;;2.50;1.25;;;;;;;;5050995;28;45313;-87
2021/12/04 11:57:35;;;;;;;;;2.00;1.50;;;;;;;;5045656;28;47113;-86
2021/12/04 12:00:10;;;;;;;;;1.00;1.00;;;;;;;;5048561;28;45293;-86
2021/12/04 12:02:35;;;;;;;;;1.75;1.50;;;;;;;;5050532;28;45207;-86
2021/12/04 12:05:00;;;;;;;;;2.00;1.75;;;;;;;;5049833;28;45532;-85
2021/12/04 12:07:27;;;;;;;;;2.33;2.00;;;;;;;;5067188;28;45184;-86
2021/12/04 12:10:08;;;;;;;;;3.50;2.75;;;;;;;;5048603;28;45831;-86
2021/12/04 12:12:35;;;;;;;;;3.50;3.50;;;;;;;;5068978;28;45286;-87
2021/12/04 12:15:05;;;;;;;;;3.00;3.00;;;;;;;;5067635;28;45286;-86
2021/12/04 12:17:32;;;;;;;;;4.00;4.00;;;;;;;;5050463;28;47294;-86
2021/12/04 12:19:58;;;;;;;;;2.00;2.00;;;;;;;;5047469;28;45513;-86
2021/12/04 12:22:30;;;;;;;;;5.75;4.50;;;;;;;;5050732;28;45444;-86
2021/12/04 12:25:11;;;;;;;;;5.00;3.00;;;;;;;;5050512;28;45270;-87
2021/12/04 12:36:03;;;;;;;;;3.00;3.00;;;;;;;;5068609;28;45076;-84
2021/12/04 12:38:48;;;;;;;;;2.75;2.00;;;;;;;;5042340;28;47672;-86
2021/12/04 12:41:32;;;;;;;;;3.00;2.50;;;;;;;;5044923;28;46050;-86
2021/12/04 12:44:03;;;;;;;;;3.00;2.25;;;;;;;;5061110;28;45534;-87
2021/12/04 12:46:33;;;;;;;;;3.50;2.75;;;;;;;;5027313;28;45491;-88
2021/12/04 12:48:58;;;;;;;;;2.50;2.00;;;;;;;;5040132;28;46853;-88
2021/12/04 12:51:25;;;;;;;;;3.67;3.33;;;;;;;;5023465;28;45147;-88
2021/12/04 12:53:50;;;;;;;;;4.75;4.50;;;;;;;;5069105;28;45075;-88
2021/12/04 12:56:16;;;;;;;;;7.75;5.50;;;;;;;;5065987;28;45104;-87
2021/12/04 12:58:53;;;;;;;;;5.00;5.00;;;;;;;;5050373;28;47779;-88
2021/12/04 13:12:41;;;;;;;;;2.75;2.50;;;;;;;;5067334;28;45740;-86
2021/12/04 13:15:10;;;;;;;;;4.25;3.00;;;;;;;;5049744;28;45237;-87
2021/12/04 13:17:35;;;;;;;;;3.00;2.00;;;;;;;;5064399;28;45024;-86
2021/12/04 13:20:01;;;;;;;;;2.67;2.00;;;;;;;;5044116;28;47358;-85
2021/12/04 13:22:28;;;;;;;;;3.00;2.00;;;;;;;;5049556;28;45509;-87
2021/12/04 13:24:54;;;;;;;;;2.50;1.25;;;;;;;;5049612;28;46167;-86
2021/12/04 13:29:49;;;;;;;;;3.00;1.00;;;;;;;;5049295;28;45564;-86
2021/12/04 13:32:16;;;;;;;;;2.50;2.50;;;;;;;;5033374;28;45608;-87
2021/12/04 13:34:42;;;;;;;;;3.00;3.00;;;;;;;;5045591;28;45852;-86
2021/12/04 13:37:08;;;;;;;;;2.25;2.25;;;;;;;;5040280;28;45599;-85
2021/12/04 13:39:35;;;;;;;;;2.00;1.75;;;;;;;;5067735;28;45906;-86
2021/12/04 13:42:01;;;;;;;;;3.25;3.00;;;;;;;;5063714;28;45686;-86
2021/12/04 13:44:28;;;;;;;;;3.00;2.25;;;;;;;;5049174;28;45210;-86
2021/12/04 13:46:56;;;;;;;;;4.25;3.00;;;;;;;;5067940;28;45119;-86
2021/12/04 13:49:26;;;;;;;;;4.75;4.00;;;;;;;;5046644;28;47407;-85
2021/12/04 13:51:52;;;;;;;;;6.00;3.75;;;;;;;;5060833;28;45685;-86
2021/12/04 13:54:18;;;;;;;;;5.50;5.50;;;;;;;;5033600;28;45561;-86
2021/12/04 13:56:44;;;;;;;;;2.50;1.75;;;;;;;;5030821;28;45630;-85
2021/12/04 13:59:11;;;;;;;;;4.00;3.50;;;;;;;;5041624;28;47326;-86
2021/12/04 14:01:42;;;;;;;;;11.00;9.75;;;;;;;;5048499;28;45235;-88
2021/12/04 14:04:11;;;;;;;;;9.75;7.75;;;;;;;;5049674;28;45144;-86
2021/12/04 14:06:36;;;;;;;;;25.75;21.50;;;;;;;;5066452;28;45448;-86
2021/12/04 14:09:06;;;;;;;;;8.25;5.00;;;;;;;;5036129;28;47090;-87
2021/12/04 14:11:32;;;;;;;;;7.50;4.75;;;;;;;;5038369;28;45902;-86
2021/12/04 14:13:57;;;;;;;;;15.67;13.67;;;;;;;;5030382;28;45868;-88
2021/12/04 14:16:24;;;;;;;;;11.00;10.50;;;;;;;;5019310;28;45757;-89
2021/12/04 14:18:49;;;;;;;;;10.00;9.00;;;;;;;;5035180;28;48188;-89
2021/12/04 14:21:15;;;;;;;;;8.00;7.00;;;;;;;;5033926;28;45684;-86
2021/12/04 14:23:40;;;;;;;;;9.75;8.75;;;;;;;;5051964;28;45948;-86
2021/12/04 14:26:06;;;;;;;;;9.33;9.00;;;;;;;;5052734;28;45819;-86
2021/12/04 14:28:38;;;;;;;;;3.00;3.00;;;;;;;;5032941;28;48076;-89
2021/12/04 14:31:03;;;;;;;;;10.00;9.00;;;;;;;;5034122;28;45802;-88
2021/12/04 14:33:28;;;;;;;;;6.75;6.75;;;;;;;;5034692;28;45602;-90
2021/12/04 14:35:54;;;;;;;;;2.67;2.67;;;;;;;;5033926;28;45724;-86
2021/12/04 14:38:21;;;;;;;;;3.75;3.25;;;;;;;;5033143;28;46695;-87
2021/12/04 14:40:48;;;;;;;;;8.50;7.75;;;;;;;;5030715;28;45931;-87
2021/12/04 14:43:16;;;;;;;;;1.50;1.50;;;;;;;;5026783;28;45723;-88
2021/12/04 14:45:44;;;;;;;;;4.50;4.00;;;;;;;;5020553;28;45448;-85
2021/12/04 14:48:11;;;;;;;;;3.50;2.00;;;;;;;;5016259;28;47879;-87
2021/12/04 14:50:40;;;;;;;;;5.00;4.50;;;;;;;;5030828;28;45975;-86
2021/12/04 14:53:07;;;;;;;;;5.50;4.25;;;;;;;;5013946;28;45473;-86
2021/12/04 14:55:34;;;;;;;;;4.75;4.50;;;;;;;;5013925;28;45484;-87
2021/12/04 14:58:00;;;;;;;;;5.00;4.75;;;;;;;;5016479;28;48052;-85
2021/12/04 15:00:28;;;;;;;;;1.00;1.00;;;;;;;;5013731;28;45988;-86
2021/12/04 15:02:58;;;;;;;;;2.50;2.00;;;;;;;;5031832;28;45548;-87
2021/12/04 15:05:26;;;;;;;;;6.50;3.00;;;;;;;;5025113;28;45512;-86
2021/12/04 15:07:59;;;;;;;;;8.75;7.00;;;;;;;;5023335;28;47401;-87
2021/12/04 15:10:24;;;;;;;;;5.50;3.00;;;;;;;;5031262;28;45945;-86
2021/12/04 15:12:51;;;;;;;;;6.75;5.25;;;;;;;;5019654;28;45493;-87
2021/12/04 15:15:19;;;;;;;;;9.25;8.00;;;;;;;;5031486;28;45745;-86
2021/12/04 15:20:39;;;;;;;;;3.50;3.00;;;;;;;;5049535;28;45730;-86
2021/12/04 15:23:08;;;;;;;;;7.25;7.25;;;;;;;;5034060;28;45589;-87
2021/12/04 15:25:35;;;;;;;;;7.25;4.75;;;;;;;;5034636;28;45797;-86
2021/12/04 15:28:01;;;;;;;;;4.00;2.50;;;;;;;;5032875;28;47194;-86
2021/12/04 15:30:26;;;;;;;;;3.00;3.00;;;;;;;;5033038;28;45399;-87
2021/12/04 15:32:53;;;;;;;;;2.00;2.00;;;;;;;;5033145;28;45732;-87
2021/12/04 15:35:28;;;;;;;;;3.75;3.75;;;;;;;;5032911;28;45552;-86
2021/12/04 15:38:07;;;;;;;;;1.00;0.75;;;;;;;;5033141;28;47032;-87
2021/12/04 15:40:48;;;;;;;;;0.25;0.25;;;;;;;;5032397;28;46003;-86
2021/12/04 15:43:28;;;;;;;;;1.75;1.00;;;;;;;;5033004;28;45503;-87
2021/12/04 15:46:10;;;;;;;;;2.25;1.75;;;;;;;;5017169;28;45529;-86
2021/12/04 15:51:47;;;;;;;;;1.75;1.75;;;;;;;;5046625;28;45569;-88
2021/12/04 15:54:16;;;;;;;;;1.00;1.00;;;;;;;;5020483;28;45426;-85
2021/12/04 15:56:47;;;;;;;;;1.75;1.00;;;;;;;;5030302;28;45487;-87
2021/12/04 15:59:18;;;;;;;;;1.50;1.00;;;;;;;;5039597;28;47656;-86
2021/12/04 16:01:43;;;;;;;;;1.00;1.00;;;;;;;;5028846;28;45899;-87
2021/12/04 16:04:27;;;;;;;;;2.00;1.00;;;;;;;;5031724;28;45251;-88
2021/12/04 16:06:52;;;;;;;;;0.00;0.00;;;;;;;;5038285;28;45531;-87
2021/12/04 16:09:28;;;;;;;;;0.75;0.75;;;;;;;;5037948;28;47734;-87
2021/12/04 16:12:03;;;;;;;;;2.00;1.00;;;;;;;;5026657;28;45420;-86
2021/12/04 16:14:36;;;;;;;;;1.00;0.00;;;;;;;;5026400;28;45570;-88
2021/12/04 16:17:03;;;;;;;;;2.00;2.00;;;;;;;;5023980;28;45749;-87
2021/12/04 16:19:30;;;;;;;;;3.25;3.00;;;;;;;;5015006;28;47942;-87
2021/12/04 16:22:00;;;;;;;;;2.50;2.25;;;;;;;;5037233;28;45357;-86
2021/12/04 16:24:26;;;;;;;;;1.00;0.25;;;;;;;;5042565;28;45130;-87
2021/12/04 16:26:59;;;;;;;;;2.00;1.00;;;;;;;;5023836;28;45538;-88
2021/12/04 16:29:25;;;;;;;;;1.75;1.00;;;;;;;;5023445;28;48263;-87
2021/12/04 16:37:35;;;;;;;;;1.00;1.00;;;;;;;;5048391;28;45384;-86
2021/12/04 16:40:02;;;;;;;;;1.50;1.00;;;;;;;;5043698;28;47724;-86
2021/12/04 16:42:29;;;;;;;;;2.50;2.50;;;;;;;;5043237;28;45572;-87
2021/12/04 16:44:54;;;;;;;;;2.25;1.75;;;;;;;;5039566;28;45376;-88
2021/12/04 16:47:21;;;;;;;;;1.00;1.00;;;;;;;;5051838;28;45489;-88
2021/12/04 16:49:47;;;;;;;;;1.00;0.75;;;;;;;;5048677;28;47288;-87
2021/12/04 16:55:07;;;;;;;;;0.25;0.25;;;;;;;;5054405;28;45526;-87
2021/12/04 16:59:58;;;;;;;;;2.00;1.00;;;;;;;;5051632;28;45672;-87
2021/12/04 17:02:23;;;;;;;;;0.00;0.00;;;;;;;;5029497;28;46049;-88
2021/12/04 17:04:50;;;;;;;;;0.00;0.00;;;;;;;;5042831;28;45784;-87
2021/12/04 17:07:16;;;;;;;;;1.00;1.00;;;;;;;;5028682;28;45626;-88
2021/12/04 17:09:41;;;;;;;;;1.00;1.00;;;;;;;;5046377;28;47986;-88
2021/12/04 17:12:07;;;;;;;;;1.00;1.00;;;;;;;;5051897;28;45866;-88
2021/12/04 17:14:32;;;;;;;;;0.00;0.00;;;;;;;;5051988;28;45569;-87
2021/12/04 17:17:00;;;;;;;;;0.00;0.00;;;;;;;;5051502;28;45411;-87
2021/12/04 17:19:25;;;;;;;;;0.00;0.00;;;;;;;;5028587;28;47677;-88
2021/12/04 17:21:52;;;;;;;;;1.00;1.00;;;;;;;;5028759;28;45363;-87
2021/12/04 17:24:19;;;;;;;;;1.00;1.00;;;;;;;;5011613;28;45507;-87
2021/12/04 17:26:44;;;;;;;;;0.75;0.75;;;;;;;;5011802;28;45651;-88
2021/12/04 17:29:12;;;;;;;;;1.75;1.00;;;;;;;;5043992;28;47541;-87
2021/12/04 17:31:38;;;;;;;;;2.50;2.50;;;;;;;;5049871;28;45336;-87
2021/12/04 17:34:03;;;;;;;;;2.00;2.00;;;;;;;;5048265;28;45401;-88
2021/12/04 17:36:29;;;;;;;;;3.00;3.00;;;;;;;;5048272;28;45467;-88
2021/12/04 17:38:55;;;;;;;;;3.00;3.00;;;;;;;;5035173;28;48300;-87
2021/12/04 17:41:22;;;;;;;;;2.00;2.00;;;;;;;;5029958;28;45507;-87
2021/12/04 17:43:47;;;;;;;;;3.00;2.00;;;;;;;;5050467;28;45826;-87
2021/12/04 17:46:16;;;;;;;;;2.50;2.00;;;;;;;;5035187;28;45645;-88
2021/12/04 17:48:42;;;;;;;;;7.50;6.25;;;;;;;;5025621;28;47196;-88
2021/12/04 17:51:07;;;;;;;;;8.00;7.00;;;;;;;;5046036;28;45446;-88
2021/12/04 17:53:37;;;;;;;;;8.00;7.00;;;;;;;;5035275;28;45842;-87
2021/12/04 17:56:03;;;;;;;;;3.50;3.00;;;;;;;;5027620;28;45511;-87
2021/12/04 17:58:28;;;;;;;;;8.00;7.00;;;;;;;;5034430;28;48127;-87
2021/12/04 18:00:55;;;;;;;;;8.67;7.67;;;;;;;;5034656;28;45790;-87
2021/12/04 18:03:23;;;;;;;;;10.00;7.25;;;;;;;;5043626;28;45476;-87
2021/12/04 18:05:50;;;;;;;;;7.50;7.00;;;;;;;;5016492;28;45377;-88
2021/12/04 18:08:16;;;;;;;;;7.00;6.00;;;;;;;;5015162;28;47216;-88
2021/12/04 18:10:45;;;;;;;;;8.00;6.00;;;;;;;;5014855;28;45503;-88
2021/12/04 18:13:11;;;;;;;;;8.25;7.50;;;;;;;;5015588;28;45526;-88